createdAt,value
2017-11-12T00:00:30.502Z,5.11
2017-11-12T00:02:58.821Z,5.11
2017-11-12T00:05:27.897Z,5.09
2017-11-12T00:07:56.212Z,5.00
2017-11-12T00:10:25.294Z,4.98
2017-11-12T00:12:53.601Z,4.99
2017-11-12T00:15:21.887Z,4.93
2017-11-12T00:17:50.967Z,4.85
2017-11-12T00:20:19.268Z,4.72
2017-11-12T00:22:47.590Z,4.66
2017-11-12T00:25:15.900Z,4.75
2017-11-12T00:27:44.226Z,4.67
2017-11-12T00:30:12.527Z,4.55
2017-11-12T00:32:41.603Z,4.50
2017-11-12T00:35:09.903Z,4.40
2017-11-12T00:37:38.978Z,4.30
2017-11-12T00:40:07.274Z,4.22
2017-11-12T00:42:36.353Z,4.15
2017-11-12T00:45:04.669Z,4.07
2017-11-12T00:47:32.972Z,4.00
2017-11-12T00:50:01.287Z,3.99
2017-11-12T00:52:29.612Z,3.91
2017-11-12T00:54:57.911Z,3.88
2017-11-12T00:57:26.229Z,3.82
2017-11-12T00:59:54.537Z,3.78
2017-11-12T01:02:22.860Z,3.79
2017-11-12T01:04:51.158Z,3.78
2017-11-12T01:07:19.474Z,3.73
2017-11-12T01:09:47.793Z,3.70
2017-11-12T01:12:16.107Z,3.70
2017-11-12T01:14:45.174Z,3.64
2017-11-12T01:17:13.494Z,3.70
2017-11-12T01:19:41.798Z,3.64
2017-11-12T01:22:10.143Z,3.57
2017-11-12T01:24:38.454Z,3.48
2017-11-12T01:27:06.768Z,3.45
2017-11-12T01:29:35.082Z,3.48
2017-11-12T01:32:03.383Z,3.50
2017-11-12T01:34:31.686Z,3.48
2017-11-12T01:36:59.983Z,3.51
2017-11-12T01:39:29.082Z,3.48
2017-11-12T01:41:58.146Z,3.44
2017-11-12T01:44:26.454Z,3.43
2017-11-12T01:46:55.538Z,3.42
2017-11-12T01:49:23.931Z,3.42
2017-11-12T01:51:53.008Z,3.40
2017-11-12T01:54:21.319Z,3.38
2017-11-12T01:56:49.617Z,3.39
2017-11-12T01:59:17.938Z,3.42
2017-11-12T02:01:46.251Z,3.37
2017-11-12T02:04:14.553Z,3.38
2017-11-12T02:06:42.842Z,3.38
2017-11-12T02:09:11.159Z,3.35
2017-11-12T02:11:40.227Z,3.28
2017-11-12T02:14:08.558Z,3.32
2017-11-12T02:16:36.867Z,3.32
2017-11-12T02:19:05.170Z,3.31
2017-11-12T02:21:33.485Z,3.26
2017-11-12T02:24:01.799Z,3.28
2017-11-12T02:26:30.752Z,3.24
2017-11-12T02:28:59.072Z,3.23
2017-11-12T02:31:28.447Z,3.30
2017-11-12T02:33:56.763Z,3.27
2017-11-12T02:36:25.826Z,3.20
2017-11-12T02:38:54.141Z,3.15
2017-11-12T02:41:22.460Z,3.19
2017-11-12T02:43:50.769Z,3.21
2017-11-12T02:46:19.076Z,3.19
2017-11-12T02:48:47.390Z,3.22
2017-11-12T02:51:15.700Z,3.22
2017-11-12T02:53:44.019Z,3.28
2017-11-12T02:56:12.318Z,3.23
2017-11-12T02:58:41.389Z,3.21
2017-11-12T03:01:09.710Z,3.22
2017-11-12T03:03:38.010Z,3.16
2017-11-12T03:06:06.347Z,3.14
2017-11-12T03:08:34.640Z,3.15
2017-11-12T03:11:02.962Z,3.18
2017-11-12T03:13:32.178Z,3.16
2017-11-12T03:16:00.507Z,3.18
2017-11-12T03:18:28.808Z,3.11
2017-11-12T03:20:57.153Z,3.09
2017-11-12T03:23:25.468Z,3.06
2017-11-12T03:25:53.782Z,2.97
2017-11-12T03:28:22.096Z,3.04
2017-11-12T03:30:50.403Z,3.01
2017-11-12T03:33:18.722Z,2.94
2017-11-12T03:35:47.036Z,2.93
2017-11-12T03:38:16.120Z,2.88
2017-11-12T03:40:44.419Z,2.89
2017-11-12T03:43:12.727Z,2.86
2017-11-12T03:45:41.089Z,2.80
2017-11-12T03:48:09.423Z,2.80
2017-11-12T03:50:37.786Z,2.76
2017-11-12T03:53:06.078Z,2.74
2017-11-12T03:55:34.402Z,2.71
2017-11-12T03:58:02.744Z,2.73
2017-11-12T04:00:31.101Z,2.71
2017-11-12T04:02:59.407Z,2.60
2017-11-12T04:05:27.729Z,2.69
2017-11-12T04:07:56.801Z,2.69
2017-11-12T04:10:25.126Z,2.71
2017-11-12T04:12:53.428Z,2.72
2017-11-12T04:15:21.771Z,2.69
2017-11-12T04:17:50.089Z,2.72
2017-11-12T04:20:18.418Z,2.75
2017-11-12T04:22:47.522Z,2.75
2017-11-12T04:25:15.834Z,2.74
2017-11-12T04:27:44.143Z,2.80
2017-11-12T04:30:12.464Z,2.80
2017-11-12T04:32:40.769Z,2.80
2017-11-12T04:35:09.096Z,2.83
2017-11-12T04:37:38.176Z,2.80
2017-11-12T04:40:07.279Z,2.82
2017-11-12T04:42:35.602Z,2.83
2017-11-12T04:45:03.911Z,2.78
2017-11-12T04:47:32.235Z,2.72
2017-11-12T04:50:00.546Z,2.64
2017-11-12T04:52:29.625Z,2.66
2017-11-12T04:54:57.940Z,2.67
2017-11-12T04:57:26.247Z,2.71
2017-11-12T04:59:55.341Z,2.68
2017-11-12T05:02:24.428Z,2.65
2017-11-12T05:04:52.742Z,2.31
2017-11-12T05:07:21.052Z,2.16
2017-11-12T05:09:49.385Z,2.14
2017-11-12T05:12:17.687Z,2.03
2017-11-12T05:14:46.018Z,1.96
2017-11-12T05:17:14.318Z,1.91
2017-11-12T05:19:42.635Z,1.88
2017-11-12T05:22:10.948Z,1.88
2017-11-12T05:24:40.028Z,1.87
2017-11-12T05:27:08.355Z,1.93
2017-11-12T05:29:36.662Z,1.85
2017-11-12T05:32:04.991Z,1.76
2017-11-12T05:34:33.317Z,1.71
2017-11-12T05:37:01.643Z,1.73
2017-11-12T05:39:30.719Z,1.76
2017-11-12T05:41:59.040Z,1.84
2017-11-12T05:44:27.352Z,1.95
2017-11-12T05:46:55.675Z,2.01
2017-11-12T05:49:23.983Z,2.05
2017-11-12T05:51:52.323Z,2.14
2017-11-12T05:54:21.394Z,2.20
2017-11-12T05:56:49.700Z,2.15
2017-11-12T05:59:18.765Z,2.21
2017-11-12T06:01:47.079Z,2.15
2017-11-12T06:04:15.389Z,2.13
2017-11-12T06:06:43.714Z,2.01
2017-11-12T06:09:12.789Z,1.94
2017-11-12T06:11:41.119Z,1.94
2017-11-12T06:14:09.411Z,2.07
2017-11-12T06:16:37.731Z,2.18
2017-11-12T06:19:06.031Z,2.29
2017-11-12T06:21:34.374Z,2.43
2017-11-12T06:24:02.687Z,2.46
2017-11-12T06:26:30.998Z,2.60
2017-11-12T06:28:59.307Z,2.72
2017-11-12T06:31:27.603Z,2.71
2017-11-12T06:33:56.676Z,2.86
2017-11-12T06:36:24.971Z,2.89
2017-11-12T06:38:53.292Z,2.86
2017-11-12T06:41:21.592Z,2.85
2017-11-12T06:43:49.906Z,2.81
2017-11-12T06:46:18.979Z,2.96
2017-11-12T06:48:47.291Z,3.00
2017-11-12T06:51:16.368Z,3.12
2017-11-12T06:53:45.459Z,3.10
2017-11-12T06:56:13.761Z,3.18
2017-11-12T06:58:42.067Z,3.20
2017-11-12T07:01:10.445Z,3.38
2017-11-12T07:03:38.753Z,3.37
2017-11-12T07:06:07.058Z,3.33
2017-11-12T07:08:36.154Z,3.30
2017-11-12T07:11:05.222Z,3.26
2017-11-12T07:13:33.533Z,3.21
2017-11-12T07:16:02.613Z,3.23
2017-11-12T07:18:31.698Z,3.27
2017-11-12T07:20:59.998Z,3.36
2017-11-12T07:23:29.072Z,3.41
2017-11-12T07:25:57.394Z,3.52
2017-11-12T07:28:25.709Z,3.65
2017-11-12T07:30:54.015Z,3.75
2017-11-12T07:33:22.324Z,3.70
2017-11-12T07:35:50.623Z,3.70
2017-11-12T07:38:18.926Z,3.87
2017-11-12T07:40:47.222Z,3.97
2017-11-12T07:43:16.291Z,3.93
2017-11-12T07:45:44.591Z,3.98
2017-11-12T07:48:12.897Z,4.09
2017-11-12T07:50:41.205Z,4.17
2017-11-12T07:53:09.549Z,4.13
2017-11-12T07:55:37.869Z,4.21
2017-11-12T07:58:06.164Z,4.18
2017-11-12T08:00:34.466Z,4.22
2017-11-12T08:03:03.550Z,4.28
2017-11-12T08:05:32.614Z,4.29
2017-11-12T08:08:00.918Z,4.14
2017-11-12T08:10:29.238Z,4.23
2017-11-12T08:12:57.543Z,4.42
2017-11-12T08:15:25.891Z,4.60
2017-11-12T08:17:54.179Z,4.78
2017-11-12T08:20:22.479Z,4.96
2017-11-12T08:22:50.835Z,4.88
2017-11-12T08:25:19.153Z,4.90
2017-11-12T08:27:47.450Z,5.01
2017-11-12T08:30:16.523Z,5.04
2017-11-12T08:32:44.818Z,5.25
2017-11-12T08:35:13.888Z,5.18
2017-11-12T08:37:42.187Z,5.40
2017-11-12T08:40:11.270Z,5.42
2017-11-12T08:42:39.582Z,5.74
2017-11-12T08:45:07.897Z,5.86
2017-11-12T08:47:36.204Z,6.03
2017-11-12T08:50:05.283Z,5.63
2017-11-12T08:52:33.585Z,5.95
2017-11-12T08:55:02.676Z,6.10
2017-11-12T08:57:30.989Z,6.17
2017-11-12T08:59:59.311Z,5.59
2017-11-12T09:02:27.611Z,5.64
2017-11-12T09:04:56.704Z,5.83
2017-11-12T09:07:25.004Z,5.95
2017-11-12T09:09:53.320Z,6.09
2017-11-12T09:12:21.607Z,6.02
2017-11-12T09:14:50.689Z,5.96
2017-11-12T09:17:18.997Z,6.06
2017-11-12T09:19:47.311Z,6.18
2017-11-12T09:22:15.619Z,6.18
2017-11-12T09:24:43.928Z,6.51
2017-11-12T09:27:12.246Z,6.61
2017-11-12T09:29:40.583Z,6.67
2017-11-12T09:32:08.874Z,6.73
2017-11-12T09:34:37.167Z,7.14
2017-11-12T09:37:06.259Z,7.18
2017-11-12T09:39:35.328Z,7.07
2017-11-12T09:42:03.632Z,7.41
2017-11-12T09:44:32.699Z,7.60
2017-11-12T09:47:01.005Z,7.46
2017-11-12T09:49:30.084Z,7.70
2017-11-12T09:51:58.420Z,8.09
2017-11-12T09:54:26.723Z,8.14
2017-11-12T09:56:55.045Z,8.32
2017-11-12T09:59:23.374Z,8.83
2017-11-12T10:01:51.683Z,8.44
2017-11-12T10:04:20.752Z,8.39
2017-11-12T10:06:49.069Z,7.89
2017-11-12T10:09:17.377Z,7.90
2017-11-12T10:11:45.690Z,7.48
2017-11-12T10:14:14.782Z,7.86
2017-11-12T10:16:43.098Z,7.90
2017-11-12T10:19:11.393Z,7.98
2017-11-12T10:21:39.695Z,7.67
2017-11-12T10:24:08.012Z,7.85
2017-11-12T10:26:37.084Z,7.90
2017-11-12T10:29:05.387Z,8.96
2017-11-12T10:31:34.462Z,8.74
2017-11-12T10:34:02.760Z,8.54
2017-11-12T10:36:31.831Z,8.23
2017-11-12T10:39:00.132Z,8.28
2017-11-12T10:41:29.198Z,8.62
2017-11-12T10:43:57.499Z,8.89
2017-11-12T10:46:26.568Z,8.88
2017-11-12T10:48:54.853Z,8.54
2017-11-12T10:51:23.155Z,8.53
2017-11-12T10:53:52.214Z,8.56
2017-11-12T10:56:20.526Z,8.37
2017-11-12T10:58:49.585Z,8.55
2017-11-12T11:01:17.899Z,8.37
2017-11-12T11:03:46.959Z,8.52
2017-11-12T11:06:15.293Z,8.10
2017-11-12T11:08:43.620Z,8.29
2017-11-12T11:11:11.947Z,8.16
2017-11-12T11:13:40.271Z,8.12
2017-11-12T11:16:08.588Z,8.16
2017-11-12T11:18:36.892Z,8.29
2017-11-12T11:21:05.222Z,8.09
2017-11-12T11:23:35.337Z,8.27
2017-11-12T11:26:03.688Z,7.97
2017-11-12T11:28:32.026Z,7.87
2017-11-12T11:31:00.338Z,8.06
2017-11-12T11:33:28.630Z,8.27
2017-11-12T11:35:56.954Z,8.09
2017-11-12T11:38:25.272Z,8.09
2017-11-12T11:40:53.613Z,8.21
2017-11-12T11:43:21.952Z,8.06
2017-11-12T11:45:50.259Z,8.08
2017-11-12T11:48:18.561Z,8.35
2017-11-12T11:50:46.881Z,8.40
2017-11-12T11:53:15.213Z,8.46
2017-11-12T11:55:43.511Z,8.36
2017-11-12T11:58:11.812Z,8.52
2017-11-12T12:00:40.176Z,8.68
2017-11-12T12:03:08.472Z,8.86
2017-11-12T12:05:36.770Z,8.85
2017-11-12T12:08:05.143Z,8.74
2017-11-12T12:10:34.287Z,8.82
2017-11-12T12:13:02.616Z,8.66
2017-11-12T12:15:31.679Z,8.74
2017-11-12T12:18:00.106Z,8.71
2017-11-12T12:20:28.432Z,8.87
2017-11-12T12:22:56.789Z,9.24
2017-11-12T12:25:25.128Z,9.30
2017-11-12T12:27:53.466Z,9.05
2017-11-12T12:30:21.782Z,9.22
2017-11-12T12:32:50.930Z,8.50
2017-11-12T12:35:19.239Z,7.88
2017-11-12T12:37:47.558Z,7.78
2017-11-12T12:40:15.885Z,7.54
2017-11-12T12:42:44.273Z,7.68
2017-11-12T12:45:13.386Z,7.72
2017-11-12T12:47:42.496Z,7.60
2017-11-12T12:50:10.838Z,7.53
2017-11-12T12:52:39.287Z,7.65
2017-11-12T12:55:07.621Z,7.50
2017-11-12T12:57:35.950Z,7.47
2017-11-12T13:00:04.271Z,7.46
2017-11-12T13:02:33.378Z,7.55
2017-11-12T13:05:01.684Z,7.33
2017-11-12T13:07:30.062Z,7.48
2017-11-12T13:09:58.376Z,7.42
2017-11-12T13:12:26.687Z,7.50
2017-11-12T13:14:55.746Z,7.63
2017-11-12T13:17:24.081Z,7.51
2017-11-12T13:19:52.380Z,7.80
2017-11-12T13:22:20.738Z,7.67
2017-11-12T13:24:49.044Z,7.67
2017-11-12T13:27:17.366Z,7.54
2017-11-12T13:29:46.461Z,7.70
2017-11-12T13:32:15.534Z,7.53
2017-11-12T13:34:43.827Z,7.37
2017-11-12T13:37:12.890Z,7.68
2017-11-12T13:39:41.201Z,7.54
2017-11-12T13:42:09.516Z,7.48
2017-11-12T13:44:37.816Z,7.45
2017-11-12T13:47:06.155Z,7.29
2017-11-12T13:49:34.477Z,7.45
2017-11-12T13:52:02.783Z,7.47
2017-11-12T13:54:31.853Z,7.43
2017-11-12T13:57:00.153Z,7.45
2017-11-12T13:59:29.267Z,7.35
2017-11-12T14:01:57.554Z,7.35
2017-11-12T14:04:25.863Z,7.35
2017-11-12T14:06:54.163Z,7.34
2017-11-12T14:09:22.493Z,7.11
2017-11-12T14:11:50.795Z,7.14
2017-11-12T14:14:19.146Z,7.06
2017-11-12T14:16:47.451Z,7.23
2017-11-12T14:19:15.785Z,7.14
2017-11-12T14:21:44.097Z,7.05
2017-11-12T14:24:13.176Z,6.88
2017-11-12T14:26:41.474Z,6.96
2017-11-12T14:29:09.797Z,7.04
2017-11-12T14:31:38.876Z,7.02
2017-11-12T14:34:07.981Z,6.98
2017-11-12T14:36:37.061Z,6.83
2017-11-12T14:39:05.379Z,6.80
2017-11-12T14:41:33.674Z,6.85
2017-11-12T14:44:02.045Z,6.75
2017-11-12T14:46:30.372Z,6.70
2017-11-12T14:48:58.767Z,6.62
2017-11-12T14:51:27.874Z,6.59
2017-11-12T14:53:56.261Z,6.65
2017-11-12T14:56:24.656Z,6.61
2017-11-12T14:58:52.991Z,6.53
2017-11-12T15:01:21.391Z,6.36
2017-11-12T15:03:49.749Z,6.44
2017-11-12T15:06:18.064Z,6.27
2017-11-12T15:08:46.428Z,6.28
2017-11-12T15:11:14.824Z,6.20
2017-11-12T15:13:43.233Z,6.21
2017-11-12T15:16:11.614Z,6.27
2017-11-12T15:18:39.987Z,6.52
2017-11-12T15:21:08.298Z,6.41
2017-11-12T15:23:37.624Z,6.26
2017-11-12T15:26:05.949Z,6.18
2017-11-12T15:28:34.265Z,6.10
2017-11-12T15:31:03.342Z,6.11
2017-11-12T15:33:31.654Z,6.20
2017-11-12T15:35:59.966Z,6.12
2017-11-12T15:38:28.274Z,6.11
2017-11-12T15:40:57.412Z,5.99
2017-11-12T15:43:25.720Z,5.92
2017-11-12T15:45:54.047Z,5.91
2017-11-12T15:48:23.125Z,5.82
2017-11-12T15:50:52.242Z,5.77
2017-11-12T15:53:21.308Z,5.76
2017-11-12T15:55:49.628Z,5.75
2017-11-12T15:58:17.944Z,5.72
2017-11-12T16:00:46.273Z,5.68
2017-11-12T16:03:14.579Z,5.72
2017-11-12T16:05:42.965Z,5.83
2017-11-12T16:08:11.277Z,5.77
2017-11-12T16:10:39.587Z,5.64
2017-11-12T16:13:07.901Z,5.54
2017-11-12T16:15:36.228Z,5.50
2017-11-12T16:18:05.299Z,5.47
2017-11-12T16:20:33.612Z,5.47
2017-11-12T16:23:01.918Z,5.43
2017-11-12T16:25:30.240Z,5.35
2017-11-12T16:27:58.551Z,5.17
2017-11-12T16:30:26.882Z,5.24
2017-11-12T16:32:55.205Z,5.17
2017-11-12T16:35:23.522Z,5.19
2017-11-12T16:37:51.833Z,5.21
2017-11-12T16:40:20.918Z,5.25
2017-11-12T16:42:49.227Z,5.27
2017-11-12T16:45:17.548Z,5.31
2017-11-12T16:47:45.861Z,5.24
2017-11-12T16:50:14.952Z,5.20
2017-11-12T16:52:44.034Z,5.24
2017-11-12T16:55:12.349Z,5.31
2017-11-12T16:57:40.670Z,5.26
2017-11-12T17:00:08.996Z,5.18
2017-11-12T17:02:37.308Z,5.14
2017-11-12T17:05:05.610Z,5.15
2017-11-12T17:07:33.927Z,5.12
2017-11-12T17:10:03.004Z,5.12
2017-11-12T17:12:31.390Z,5.16
2017-11-12T17:15:00.463Z,5.15
2017-11-12T17:17:28.835Z,5.12
2017-11-12T17:19:57.151Z,5.17
2017-11-12T17:22:26.226Z,5.19
2017-11-12T17:24:54.534Z,5.13
2017-11-12T17:27:22.860Z,5.10
2017-11-12T17:29:51.187Z,5.10
2017-11-12T17:32:19.533Z,5.07
2017-11-12T17:34:47.848Z,5.04
2017-11-12T17:37:16.169Z,5.15
2017-11-12T17:39:44.484Z,5.21
2017-11-12T17:42:13.569Z,5.20
2017-11-12T17:44:41.871Z,5.23
2017-11-12T17:47:10.178Z,5.24
2017-11-12T17:49:38.489Z,5.07
2017-11-12T17:52:06.811Z,5.10
2017-11-12T17:54:35.102Z,5.08
2017-11-12T17:57:03.430Z,5.06
2017-11-12T17:59:32.529Z,5.03
2017-11-12T18:02:01.627Z,5.04
2017-11-12T18:04:30.711Z,5.11
2017-11-12T18:06:59.032Z,5.27
2017-11-12T18:09:27.341Z,5.33
2017-11-12T18:11:55.712Z,5.36
2017-11-12T18:14:24.024Z,5.39
2017-11-12T18:16:52.358Z,5.29
2017-11-12T18:19:20.691Z,5.08
2017-11-12T18:21:49.027Z,5.14
2017-11-12T18:24:17.340Z,5.09
2017-11-12T18:26:46.427Z,5.10
2017-11-12T18:29:14.722Z,5.09
2017-11-12T18:31:43.811Z,5.12
2017-11-12T18:34:12.914Z,5.12
2017-11-12T18:36:41.997Z,5.15
2017-11-12T18:39:11.101Z,5.15
2017-11-12T18:41:40.168Z,5.12
2017-11-12T18:44:08.494Z,5.11
2017-11-12T18:46:36.805Z,5.02
2017-11-12T18:49:05.129Z,4.97
2017-11-12T18:51:34.216Z,4.73
2017-11-12T18:54:03.285Z,4.79
2017-11-12T18:56:41.486Z,4.75
2017-11-12T18:59:11.090Z,4.73
2017-11-12T19:01:49.282Z,4.57
2017-11-12T19:04:23.071Z,4.53
2017-11-12T19:06:56.737Z,4.48
2017-11-12T19:09:40.708Z,4.50
2017-11-12T19:12:09.349Z,4.46
2017-11-12T19:14:37.664Z,4.45
2017-11-12T19:17:09.070Z,4.42
2017-11-12T19:19:47.612Z,4.35
2017-11-12T19:22:17.062Z,4.33
2017-11-12T19:25:01.022Z,4.26
2017-11-12T19:27:30.225Z,4.34
2017-11-12T19:29:59.638Z,4.28
2017-11-12T19:32:27.951Z,4.24
2017-11-12T19:34:57.034Z,4.25
2017-11-12T19:37:26.126Z,4.27
2017-11-12T19:39:54.447Z,4.19
2017-11-12T19:42:22.773Z,4.23
2017-11-12T19:44:51.896Z,4.14
2017-11-12T19:47:21.103Z,4.22
2017-11-12T19:49:49.443Z,4.22
2017-11-12T19:52:17.768Z,4.25
2017-11-12T19:54:46.105Z,4.23
2017-11-12T19:57:14.421Z,4.22
2017-11-12T19:59:42.743Z,4.17
2017-11-12T20:02:11.044Z,4.20
2017-11-12T20:04:39.360Z,4.16
2017-11-12T20:07:08.148Z,4.16
2017-11-12T20:09:36.458Z,4.23
2017-11-12T20:12:04.783Z,4.24
2017-11-12T20:14:33.138Z,4.20
2017-11-12T20:17:02.240Z,3.98
2017-11-12T20:19:30.570Z,4.17
2017-11-12T20:21:58.884Z,4.15
2017-11-12T20:24:27.207Z,4.14
2017-11-12T20:26:55.507Z,4.14
2017-11-12T20:29:23.819Z,4.16
2017-11-12T20:31:52.899Z,4.14
2017-11-12T20:34:21.984Z,4.13
2017-11-12T20:36:50.292Z,4.17
2017-11-12T20:39:19.380Z,4.11
2017-11-12T20:41:47.683Z,4.17
2017-11-12T20:44:16.756Z,4.20
2017-11-12T20:46:45.078Z,4.22
2017-11-12T20:49:13.392Z,4.28
2017-11-12T20:51:41.705Z,4.26
2017-11-12T20:54:10.792Z,4.25
2017-11-12T20:56:39.858Z,4.17
2017-11-12T20:59:08.167Z,4.22
2017-11-12T21:01:37.245Z,4.27
2017-11-12T21:04:06.334Z,4.22
2017-11-12T21:06:34.670Z,4.29
2017-11-12T21:09:02.980Z,4.28
2017-11-12T21:11:31.274Z,4.23
2017-11-12T21:13:59.586Z,4.16
2017-11-12T21:16:27.886Z,4.32
2017-11-12T21:18:56.194Z,4.27
2017-11-12T21:24:36.215Z,4.08
2017-11-12T21:27:09.973Z,4.16
2017-11-12T21:29:38.307Z,4.23
2017-11-12T21:32:07.882Z,4.27
2017-11-12T21:34:54.484Z,4.18
2017-11-12T21:37:29.022Z,4.24
2017-11-12T21:39:58.085Z,4.11
2017-11-12T21:42:26.384Z,4.16
2017-11-12T21:44:55.479Z,4.16
2017-11-12T21:47:24.570Z,4.19
2017-11-12T21:49:52.881Z,4.18
2017-11-12T21:52:21.182Z,4.11
2017-11-12T21:54:49.487Z,4.12
2017-11-12T21:57:17.800Z,4.06
2017-11-12T21:59:46.111Z,3.98
2017-11-12T22:02:14.427Z,3.95
2017-11-12T22:04:42.776Z,4.04
2017-11-12T22:07:11.082Z,4.03
2017-11-12T22:09:40.183Z,4.05
2017-11-12T22:12:09.254Z,4.00
2017-11-12T22:14:37.566Z,4.12
2017-11-12T22:17:06.652Z,4.04
2017-11-12T22:19:35.711Z,3.99
2017-11-12T22:22:04.020Z,3.89
2017-11-12T22:24:32.311Z,3.98
2017-11-12T22:27:01.390Z,3.99
2017-11-12T22:29:29.704Z,3.98
2017-11-12T22:31:58.011Z,3.94
2017-11-12T22:34:26.320Z,3.92
2017-11-12T22:36:55.398Z,3.94
2017-11-12T22:39:23.733Z,3.94
2017-11-12T22:41:52.164Z,3.90
2017-11-12T22:44:20.463Z,3.89
2017-11-12T22:46:49.542Z,3.86
2017-11-12T22:49:17.834Z,3.92
2017-11-12T22:51:46.910Z,3.94
2017-11-12T22:54:15.211Z,3.87
2017-11-12T22:56:44.283Z,3.86
2017-11-12T22:59:12.608Z,3.98
2017-11-12T23:01:40.920Z,4.00
2017-11-12T23:04:09.219Z,3.98
2017-11-12T23:06:37.526Z,4.06
2017-11-12T23:09:05.815Z,3.97
2017-11-12T23:11:34.133Z,4.01
2017-11-12T23:14:02.434Z,4.09
2017-11-12T23:16:30.753Z,4.15
2017-11-12T23:18:59.045Z,4.13
2017-11-12T23:21:27.352Z,4.20
2017-11-12T23:23:55.662Z,4.07
2017-11-12T23:26:23.980Z,4.14
2017-11-12T23:28:52.278Z,4.14
2017-11-12T23:31:20.582Z,4.19
2017-11-12T23:33:49.649Z,3.99
2017-11-12T23:36:17.965Z,3.94
2017-11-12T23:38:47.033Z,4.09
2017-11-12T23:41:15.342Z,4.04
2017-11-12T23:43:43.668Z,4.12
2017-11-12T23:46:11.977Z,4.00
2017-11-12T23:48:41.053Z,3.93
2017-11-12T23:51:09.380Z,3.89
2017-11-12T23:53:37.686Z,3.99
2017-11-12T23:56:06.017Z,3.99
2017-11-12T23:58:34.321Z,4.09
